createdAt,value
2022-08-07T00:00:15.275Z,100.00
2022-08-07T00:02:45.602Z,99.76
2022-08-07T00:05:12.701Z,97.83
2022-08-07T00:07:41.159Z,98.99
2022-08-07T00:10:27.256Z,99.55
2022-08-07T00:12:59.953Z,98.16
2022-08-07T00:15:36.208Z,100.00
2022-08-07T00:18:05.931Z,100.00
2022-08-07T00:20:35.449Z,100.00
2022-08-07T00:23:02.747Z,100.00
2022-08-07T00:25:41.220Z,100.00
2022-08-07T00:28:08.515Z,100.00
2022-08-07T00:30:37.502Z,100.00
2022-08-07T00:33:05.289Z,100.00
2022-08-07T00:35:35.176Z,100.00
2022-08-07T00:38:04.569Z,100.00
2022-08-07T00:40:36.312Z,100.00
2022-08-07T00:43:09.730Z,100.00
2022-08-07T00:45:39.613Z,100.00
2022-08-07T00:48:10.926Z,100.00
2022-08-07T00:50:51.039Z,100.00
2022-08-07T00:53:20.627Z,100.00
2022-08-07T00:56:02.401Z,100.00
2022-08-07T00:58:32.559Z,100.00
2022-08-07T01:01:00.173Z,100.00
2022-08-07T01:03:57.126Z,100.00
2022-08-07T01:06:14.211Z,100.00
2022-08-07T01:08:52.077Z,100.00
2022-08-07T01:12:10.117Z,100.00
2022-08-07T01:14:09.127Z,100.00
2022-08-07T01:16:36.890Z,100.00
2022-08-07T01:19:07.311Z,100.00
2022-08-07T01:21:47.422Z,100.00
2022-08-07T01:24:21.173Z,100.00
2022-08-07T01:26:52.256Z,100.00
2022-08-07T01:29:23.129Z,100.00
2022-08-07T01:31:52.632Z,100.00
2022-08-07T01:34:20.396Z,100.00
2022-08-07T01:36:58.758Z,100.00
2022-08-07T01:39:41.047Z,100.00
2022-08-07T01:42:58.598Z,100.00
2022-08-07T01:45:36.217Z,100.00
2022-08-07T01:48:29.856Z,100.00
2022-08-07T01:51:24.398Z,100.00
2022-08-07T01:54:09.456Z,100.00
2022-08-07T01:56:54.361Z,100.00
2022-08-07T01:59:30.812Z,100.00
2022-08-07T02:02:06.470Z,100.00
2022-08-07T02:04:52.567Z,100.00
2022-08-07T02:07:36.166Z,100.00
2022-08-07T02:10:23.768Z,100.00
2022-08-07T02:12:51.636Z,100.00
2022-08-07T02:15:28.244Z,99.91
2022-08-07T02:17:57.374Z,100.00
2022-08-07T02:20:29.073Z,100.00
2022-08-07T02:23:00.084Z,100.00
2022-08-07T02:26:10.405Z,100.00
2022-08-07T02:28:25.442Z,100.00
2022-08-07T02:30:59.092Z,100.00
2022-08-07T02:33:32.784Z,100.00
2022-08-07T02:36:27.065Z,100.00
2022-08-07T02:39:00.305Z,100.00
2022-08-07T02:41:36.963Z,100.00
2022-08-07T02:44:05.768Z,100.00
2022-08-07T02:46:36.855Z,100.00
2022-08-07T02:49:05.699Z,100.00
2022-08-07T02:51:42.768Z,100.00
2022-08-07T02:54:20.369Z,99.65
2022-08-07T02:56:48.896Z,99.00
2022-08-07T02:59:19.819Z,98.42
2022-08-07T03:01:55.267Z,99.36
2022-08-07T03:04:25.633Z,99.85
2022-08-07T03:06:54.214Z,98.60
2022-08-07T03:09:43.495Z,98.50
2022-08-07T03:12:21.832Z,96.68
2022-08-07T03:14:56.235Z,96.84
2022-08-07T03:17:23.710Z,96.51
2022-08-07T03:19:55.532Z,95.48
2022-08-07T03:22:29.512Z,96.48
2022-08-07T03:24:59.976Z,95.72
2022-08-07T03:27:41.997Z,95.27
2022-08-07T03:30:17.482Z,95.64
2022-08-07T03:32:59.251Z,96.10
2022-08-07T03:35:43.815Z,95.69
2022-08-07T03:38:21.025Z,95.25
2022-08-07T03:40:57.250Z,96.95
2022-08-07T03:43:26.902Z,96.97
2022-08-07T03:46:02.832Z,98.57
2022-08-07T03:48:31.810Z,98.10
2022-08-07T03:51:00.619Z,99.88
2022-08-07T03:54:32.735Z,99.62
2022-08-07T03:56:33.472Z,100.00
2022-08-07T03:59:09.151Z,100.00
2022-08-07T04:01:45.564Z,100.00
2022-08-07T04:04:17.893Z,100.00
2022-08-07T04:06:50.953Z,100.00
2022-08-07T04:09:23.092Z,100.00
2022-08-07T04:12:25.547Z,100.00
2022-08-07T04:14:43.861Z,100.00
2022-08-07T04:17:20.175Z,100.00
2022-08-07T04:19:52.481Z,100.00
2022-08-07T04:22:27.607Z,100.00
2022-08-07T04:25:00.870Z,100.00
2022-08-07T04:27:35.519Z,100.00
2022-08-07T04:30:13.419Z,100.00
2022-08-07T04:32:58.362Z,100.00
2022-08-07T04:35:26.381Z,100.00
2022-08-07T04:38:03.503Z,100.00
2022-08-07T04:40:52.970Z,100.00
2022-08-07T04:44:12.241Z,100.00
2022-08-07T04:46:34.519Z,100.00
2022-08-07T04:49:29.429Z,98.81
2022-08-07T04:52:30.852Z,97.47
2022-08-07T04:55:01.674Z,96.38
2022-08-07T04:58:32.132Z,96.14
2022-08-07T05:00:47.812Z,94.65
2022-08-07T05:04:00.920Z,94.74
2022-08-07T05:06:28.263Z,93.87
2022-08-07T05:09:43.421Z,93.59
2022-08-07T05:12:27.115Z,93.35
2022-08-07T05:15:23.382Z,93.49
2022-08-07T05:18:16.659Z,91.12
2022-08-07T05:20:48.034Z,91.16
2022-08-07T05:23:23.226Z,90.59
2022-08-07T05:26:12.899Z,90.31
2022-08-07T05:28:50.395Z,88.94
2022-08-07T05:31:35.103Z,90.45
2022-08-07T05:34:11.062Z,88.79
2022-08-07T05:36:43.623Z,90.82
2022-08-07T05:40:13.365Z,92.15
2022-08-07T05:42:34.315Z,90.59
2022-08-07T05:45:25.829Z,92.23
2022-08-07T05:48:01.198Z,90.08
2022-08-07T05:50:39.405Z,91.70
2022-08-07T05:54:12.183Z,92.30
2022-08-07T05:56:03.774Z,91.89
2022-08-07T05:58:39.162Z,91.96
2022-08-07T06:01:11.152Z,91.35
2022-08-07T06:03:57.211Z,93.62
2022-08-07T06:06:32.763Z,93.69
2022-08-07T06:09:04.639Z,94.09
2022-08-07T06:11:34.887Z,94.42
2022-08-07T06:14:13.067Z,96.96
2022-08-07T06:16:56.241Z,95.88
2022-08-07T06:19:47.886Z,93.53
2022-08-07T06:22:24.010Z,91.71
2022-08-07T06:25:13.835Z,89.92
2022-08-07T06:27:44.115Z,91.66
2022-08-07T06:30:35.597Z,90.97
2022-08-07T06:33:16.684Z,90.35
2022-08-07T06:36:06.786Z,89.20
2022-08-07T06:38:51.669Z,88.04
2022-08-07T06:42:07.140Z,86.89
2022-08-07T06:44:52.791Z,87.64
2022-08-07T06:47:22.315Z,85.45
2022-08-07T06:49:51.136Z,84.92
2022-08-07T06:52:31.429Z,82.67
2022-08-07T06:55:31.421Z,83.73
2022-08-07T06:58:03.141Z,83.53
2022-08-07T07:00:38.195Z,85.05
2022-08-07T07:03:08.801Z,81.57
2022-08-07T07:06:03.579Z,80.47
2022-08-07T07:08:31.085Z,78.11
2022-08-07T07:11:00.950Z,76.86
2022-08-07T07:13:58.548Z,75.87
2022-08-07T07:16:45.225Z,75.32
2022-08-07T07:19:56.078Z,77.22
2022-08-07T07:22:33.943Z,73.79
2022-08-07T07:25:14.286Z,72.53
2022-08-07T07:28:07.770Z,71.88
2022-08-07T07:31:02.144Z,73.83
2022-08-07T07:33:32.766Z,72.72
2022-08-07T07:36:05.405Z,73.31
2022-08-07T07:38:41.543Z,74.57
2022-08-07T07:41:14.458Z,75.36
2022-08-07T07:44:14.218Z,73.54
2022-08-07T07:46:53.503Z,77.34
2022-08-07T07:50:35.612Z,75.82
2022-08-07T07:52:09.874Z,73.60
2022-08-07T07:54:37.634Z,77.72
2022-08-07T07:57:07.709Z,76.59
2022-08-07T07:59:52.030Z,76.40
2022-08-07T08:02:34.250Z,78.08
2022-08-07T08:05:11.499Z,77.73
2022-08-07T08:07:51.529Z,74.13
2022-08-07T08:10:37.763Z,73.07
2022-08-07T08:13:10.638Z,75.84
2022-08-07T08:15:59.098Z,76.18
2022-08-07T08:18:29.680Z,72.63
2022-08-07T08:21:00.399Z,70.83
2022-08-07T08:23:48.799Z,72.67
2022-08-07T08:26:37.831Z,70.28
2022-08-07T08:29:06.788Z,68.82
2022-08-07T08:32:17.092Z,72.06
2022-08-07T08:34:35.601Z,68.79
2022-08-07T08:37:09.982Z,73.16
2022-08-07T08:39:54.668Z,69.38
2022-08-07T08:42:35.488Z,68.00
2022-08-07T08:45:18.881Z,68.02
2022-08-07T08:48:04.299Z,66.95
2022-08-07T08:50:39.564Z,66.62
2022-08-07T08:53:19.771Z,68.72
2022-08-07T08:55:59.155Z,67.04
2022-08-07T08:58:50.651Z,65.45
2022-08-07T09:02:02.876Z,66.04
2022-08-07T09:04:43.836Z,68.99
2022-08-07T09:07:46.249Z,66.89
2022-08-07T09:10:48.691Z,65.60
2022-08-07T09:13:42.174Z,67.13
2022-08-07T09:16:20.276Z,67.16
2022-08-07T09:19:51.418Z,65.89
2022-08-07T09:24:29.364Z,64.56
2022-08-07T09:25:27.262Z,62.01
2022-08-07T09:28:04.044Z,61.21
2022-08-07T09:30:54.568Z,60.73
2022-08-07T09:33:58.211Z,61.66
2022-08-07T09:36:53.955Z,61.05
2022-08-07T09:39:53.833Z,61.29
2022-08-07T09:42:42.273Z,58.46
2022-08-07T09:46:28.720Z,58.59
2022-08-07T09:48:14.665Z,57.42
2022-08-07T09:51:14.758Z,59.04
2022-08-07T09:54:03.276Z,59.80
2022-08-07T09:57:05.222Z,57.88
2022-08-07T09:59:35.650Z,58.56
2022-08-07T10:02:55.599Z,57.84
2022-08-07T10:06:11.998Z,56.94
2022-08-07T10:08:57.998Z,58.24
2022-08-07T10:12:02.400Z,57.75
2022-08-07T10:14:41.893Z,57.52
2022-08-07T10:18:02.682Z,56.82
2022-08-07T10:20:44.485Z,58.21
2022-08-07T10:24:05.582Z,58.03
2022-08-07T10:26:53.127Z,54.49
2022-08-07T10:29:45.894Z,54.52
2022-08-07T10:32:52.440Z,54.40
2022-08-07T10:35:56.281Z,55.18
2022-08-07T10:38:48.180Z,53.49
2022-08-07T10:41:46.383Z,52.85
2022-08-07T10:44:28.276Z,52.07
2022-08-07T10:47:55.015Z,52.04
2022-08-07T10:50:50.749Z,51.69
2022-08-07T10:53:28.258Z,51.36
2022-08-07T10:56:30.887Z,51.57
2022-08-07T10:59:21.632Z,51.62
2022-08-07T11:02:33.073Z,48.71
2022-08-07T11:05:49.100Z,48.97
2022-08-07T11:08:39.056Z,50.84
2022-08-07T11:11:11.656Z,51.47
2022-08-07T11:14:43.773Z,49.86
2022-08-07T11:17:01.095Z,50.15
2022-08-07T11:19:58.514Z,49.84
2022-08-07T11:22:48.396Z,52.07
2022-08-07T11:25:23.306Z,52.22
2022-08-07T11:28:15.621Z,50.30
2022-08-07T11:30:46.531Z,48.65
2022-08-07T11:33:55.397Z,46.01
2022-08-07T11:36:40.616Z,45.74
2022-08-07T11:39:19.956Z,45.10
2022-08-07T11:42:03.515Z,45.81
2022-08-07T11:44:52.791Z,46.38
2022-08-07T11:48:03.365Z,44.56
2022-08-07T11:50:57.729Z,45.74
2022-08-07T11:54:15.905Z,49.14
2022-08-07T11:57:02.213Z,48.37
2022-08-07T12:00:10.820Z,48.25
2022-08-07T12:02:52.460Z,47.52
2022-08-07T12:05:47.490Z,46.55
2022-08-07T12:08:37.930Z,48.02
2022-08-07T12:11:20.649Z,46.70
2022-08-07T12:14:12.814Z,46.93
2022-08-07T12:16:55.157Z,46.52
2022-08-07T12:20:03.335Z,48.65
2022-08-07T12:22:55.901Z,49.16
2022-08-07T12:26:21.817Z,50.75
2022-08-07T12:29:12.992Z,50.32
2022-08-07T12:32:04.829Z,48.20
2022-08-07T12:34:36.033Z,46.75
2022-08-07T12:37:08.768Z,46.87
2022-08-07T12:39:51.006Z,47.14
2022-08-07T12:42:27.621Z,46.40
2022-08-07T12:44:58.260Z,44.97
2022-08-07T12:47:40.547Z,44.51
2022-08-07T12:50:34.310Z,45.26
2022-08-07T12:53:19.106Z,43.96
2022-08-07T12:56:03.959Z,44.53
2022-08-07T12:58:39.526Z,45.64
2022-08-07T13:01:55.676Z,45.51
2022-08-07T13:04:32.684Z,45.59
2022-08-07T13:08:12.215Z,46.32
2022-08-07T13:10:52.633Z,44.90
2022-08-07T13:13:57.612Z,44.71
2022-08-07T13:16:41.427Z,45.30
2022-08-07T13:19:21.849Z,45.19
2022-08-07T13:22:12.798Z,45.39
2022-08-07T13:24:56.884Z,45.57
2022-08-07T13:28:11.127Z,44.75
2022-08-07T13:30:40.387Z,45.12
2022-08-07T13:34:33.060Z,44.68
2022-08-07T13:36:40.491Z,43.76
2022-08-07T13:39:49.827Z,44.77
2022-08-07T13:42:10.294Z,45.71
2022-08-07T13:44:39.714Z,43.79
2022-08-07T13:47:16.011Z,44.27
2022-08-07T13:50:32.783Z,42.70
2022-08-07T13:52:47.059Z,42.10
2022-08-07T13:55:19.572Z,42.69
2022-08-07T13:58:28.067Z,44.22
2022-08-07T14:01:09.108Z,43.82
2022-08-07T14:04:07.774Z,43.29
2022-08-07T14:06:37.131Z,43.35
2022-08-07T14:09:10.032Z,44.32
2022-08-07T14:12:07.425Z,43.67
2022-08-07T14:14:45.732Z,43.64
2022-08-07T14:18:12.949Z,44.02
2022-08-07T14:20:39.904Z,43.45
2022-08-07T14:23:31.385Z,43.89
2022-08-07T14:26:28.422Z,44.78
2022-08-07T14:29:10.538Z,44.28
2022-08-07T14:31:56.627Z,43.47
2022-08-07T14:34:31.770Z,44.11
2022-08-07T14:37:03.402Z,44.16
2022-08-07T14:40:15.934Z,42.29
2022-08-07T14:42:32.415Z,43.21
2022-08-07T14:45:21.598Z,43.10
2022-08-07T14:50:47.206Z,44.60
2022-08-07T14:59:14.060Z,43.52
2022-08-07T15:04:52.908Z,42.61
2022-08-07T15:07:23.788Z,42.69
2022-08-07T15:10:17.891Z,42.21
2022-08-07T15:13:06.380Z,42.10
2022-08-07T15:15:40.718Z,43.05
2022-08-07T15:18:33.847Z,42.18
2022-08-07T15:21:08.289Z,42.26
2022-08-07T15:25:14.364Z,41.90
2022-08-07T15:26:49.372Z,42.72
2022-08-07T15:32:11.729Z,42.93
2022-08-07T15:35:02.978Z,43.54
2022-08-07T15:38:17.861Z,43.78
2022-08-07T15:40:33.975Z,43.86
2022-08-07T15:43:53.175Z,44.28
2022-08-07T15:49:13.330Z,44.03
2022-08-07T15:54:39.307Z,44.94
2022-08-07T15:57:27.787Z,44.74
2022-08-07T16:00:04.092Z,44.44
2022-08-07T16:02:41.300Z,44.47
2022-08-07T16:05:18.097Z,44.87
2022-08-07T16:08:30.743Z,46.05
2022-08-07T16:11:02.972Z,46.53
2022-08-07T16:14:22.146Z,46.51
2022-08-07T16:17:14.896Z,46.37
2022-08-07T16:20:33.785Z,46.57
2022-08-07T16:23:55.040Z,46.71
2022-08-07T16:26:31.194Z,46.11
2022-08-07T16:30:09.952Z,46.72
2022-08-07T16:32:33.198Z,47.57
2022-08-07T16:35:51.661Z,47.89
2022-08-07T16:39:00.706Z,49.98
2022-08-07T16:42:04.083Z,51.91
2022-08-07T16:45:14.395Z,53.76
2022-08-07T16:48:02.532Z,55.07
2022-08-07T16:51:21.057Z,56.35
2022-08-07T16:54:06.103Z,66.10
2022-08-07T16:56:53.491Z,72.22
2022-08-07T16:59:52.280Z,73.14
2022-08-07T17:02:53.547Z,82.30
2022-08-07T17:06:19.003Z,98.79
2022-08-07T17:12:04.016Z,100.00
2022-08-07T17:14:42.673Z,100.00
2022-08-07T17:17:46.019Z,100.00
2022-08-07T17:20:30.844Z,100.00
2022-08-07T17:23:16.840Z,100.00
2022-08-07T17:26:24.209Z,100.00
2022-08-07T17:28:58.088Z,100.00
2022-08-07T17:32:02.691Z,100.00
2022-08-07T17:35:32.945Z,100.00
2022-08-07T17:38:12.741Z,100.00
2022-08-07T17:41:12.483Z,100.00
2022-08-07T17:44:06.487Z,100.00
2022-08-07T17:47:38.281Z,100.00
2022-08-07T17:50:19.048Z,100.00
2022-08-07T17:54:00.133Z,100.00
2022-08-07T17:56:28.728Z,100.00
2022-08-07T17:58:56.808Z,100.00
2022-08-07T18:01:37.233Z,100.00
2022-08-07T18:04:30.999Z,100.00
2022-08-07T18:07:20.832Z,100.00
2022-08-07T18:10:07.477Z,100.00
2022-08-07T18:12:59.153Z,100.00
2022-08-07T18:15:32.322Z,100.00
2022-08-07T18:18:46.373Z,100.00
2022-08-07T18:21:37.336Z,100.00
2022-08-07T18:23:58.344Z,100.00
2022-08-07T18:26:44.588Z,100.00
2022-08-07T18:30:06.398Z,100.00
2022-08-07T18:32:25.627Z,100.00
2022-08-07T18:35:20.595Z,100.00
2022-08-07T18:38:55.110Z,100.00
2022-08-07T18:41:45.163Z,100.00
2022-08-07T18:44:45.959Z,100.00
2022-08-07T18:47:44.608Z,100.00
2022-08-07T18:50:43.819Z,100.00
2022-08-07T18:53:39.162Z,100.00
2022-08-07T18:56:15.395Z,100.00
2022-08-07T18:58:51.300Z,100.00
2022-08-07T19:02:17.602Z,100.00
2022-08-07T19:04:54.802Z,100.00
2022-08-07T19:07:34.789Z,100.00
2022-08-07T19:10:18.569Z,100.00
2022-08-07T19:12:58.266Z,100.00
2022-08-07T19:16:05.302Z,100.00
2022-08-07T19:18:57.528Z,100.00
2022-08-07T19:21:56.180Z,100.00
2022-08-07T19:24:36.205Z,100.00
2022-08-07T19:28:29.620Z,100.00
2022-08-07T19:31:06.376Z,100.00
2022-08-07T19:32:52.525Z,100.00
2022-08-07T19:35:33.065Z,100.00
2022-08-07T19:38:03.416Z,100.00
2022-08-07T19:40:37.900Z,100.00
2022-08-07T19:43:49.535Z,100.00
2022-08-07T19:46:11.341Z,100.00
2022-08-07T19:48:54.076Z,100.00
2022-08-07T19:51:50.968Z,100.00
2022-08-07T19:54:34.870Z,100.00
2022-08-07T19:58:01.571Z,100.00
2022-08-07T19:59:56.110Z,100.00
2022-08-07T20:02:35.192Z,100.00
2022-08-07T20:05:08.772Z,100.00
2022-08-07T20:07:46.107Z,100.00
2022-08-07T20:10:37.083Z,100.00
2022-08-07T20:13:22.404Z,100.00
2022-08-07T20:15:54.228Z,100.00
2022-08-07T20:18:31.993Z,100.00
2022-08-07T20:21:02.269Z,100.00
2022-08-07T20:23:41.815Z,100.00
2022-08-07T20:26:12.998Z,100.00
2022-08-07T20:28:51.825Z,100.00
2022-08-07T20:31:21.800Z,100.00
2022-08-07T20:33:56.830Z,100.00
2022-08-07T20:36:27.270Z,100.00
2022-08-07T20:39:00.364Z,100.00
2022-08-07T20:41:50.670Z,100.00
2022-08-07T20:44:20.516Z,100.00
2022-08-07T20:47:05.748Z,100.00
2022-08-07T20:49:59.231Z,100.00
2022-08-07T20:52:51.298Z,100.00
2022-08-07T20:55:25.454Z,100.00
2022-08-07T20:58:00.153Z,100.00
2022-08-07T21:00:44.386Z,100.00
2022-08-07T21:03:19.219Z,100.00
2022-08-07T21:06:21.570Z,100.00
2022-08-07T21:09:01.838Z,100.00
2022-08-07T21:11:46.185Z,100.00
2022-08-07T21:14:32.797Z,100.00
2022-08-07T21:18:01.245Z,100.00
2022-08-07T21:20:05.322Z,100.00
2022-08-07T21:22:57.301Z,100.00
2022-08-07T21:25:39.090Z,100.00
2022-08-07T21:28:49.215Z,100.00
2022-08-07T21:32:41.786Z,100.00
2022-08-07T21:34:48.851Z,100.00
2022-08-07T21:37:25.866Z,100.00
2022-08-07T21:40:02.462Z,100.00
2022-08-07T21:42:48.610Z,100.00
2022-08-07T21:46:03.255Z,100.00
2022-08-07T21:48:27.640Z,100.00
2022-08-07T21:51:00.934Z,100.00
2022-08-07T21:53:37.195Z,100.00
2022-08-07T21:56:35.987Z,100.00
2022-08-07T21:59:09.788Z,100.00
2022-08-07T22:02:10.281Z,100.00
2022-08-07T22:04:37.114Z,100.00
2022-08-07T22:07:23.205Z,100.00
2022-08-07T22:10:06.557Z,100.00
2022-08-07T22:12:56.227Z,100.00
2022-08-07T22:16:43.567Z,100.00
2022-08-07T22:18:44.771Z,100.00
2022-08-07T22:21:19.090Z,100.00
2022-08-07T22:24:00.724Z,100.00
2022-08-07T22:27:17.731Z,100.00
2022-08-07T22:29:55.114Z,100.00
2022-08-07T22:32:37.600Z,100.00
2022-08-07T22:35:11.291Z,100.00
2022-08-07T22:38:07.431Z,100.00
2022-08-07T22:40:49.024Z,100.00
2022-08-07T22:43:23.486Z,100.00
2022-08-07T22:46:21.241Z,100.00
2022-08-07T22:48:56.239Z,100.00
2022-08-07T22:51:49.074Z,100.00
2022-08-07T22:54:48.959Z,100.00
2022-08-07T22:57:44.725Z,100.00
2022-08-07T23:00:16.223Z,100.00
2022-08-07T23:03:01.605Z,100.00
2022-08-07T23:06:15.663Z,100.00
2022-08-07T23:10:03.397Z,100.00
2022-08-07T23:12:42.992Z,100.00
2022-08-07T23:16:06.832Z,100.00
2022-08-07T23:18:32.100Z,100.00
2022-08-07T23:21:30.160Z,100.00
2022-08-07T23:24:50.138Z,100.00
2022-08-07T23:28:21.156Z,100.00
2022-08-07T23:31:06.704Z,100.00
2022-08-07T23:34:35.390Z,100.00
2022-08-07T23:37:19.398Z,100.00
2022-08-07T23:40:01.050Z,100.00
2022-08-07T23:43:07.693Z,100.00
2022-08-07T23:46:10.636Z,100.00
2022-08-07T23:48:43.902Z,100.00
2022-08-07T23:53:00.971Z,100.00
2022-08-07T23:54:19.928Z,100.00
2022-08-07T23:57:27.679Z,100.00
